sensor_id;sensor_type;location;lat;lon;timestamp;pressure;altitude;pressure_sealevel;temperature
42119;BMP280;27783;42.782;23.274;2023-12-20T00:01:08;95977.38;;;-1.64
42119;BMP280;27783;42.782;23.274;2023-12-20T00:03:33;95974.50;;;-1.62
42119;BMP280;27783;42.782;23.274;2023-12-20T00:05:59;95969.03;;;-1.61
42119;BMP280;27783;42.782;23.274;2023-12-20T00:08:25;95973.91;;;-1.59
42119;BMP280;27783;42.782;23.274;2023-12-20T00:10:51;95982.16;;;-1.79
42119;BMP280;27783;42.782;23.274;2023-12-20T00:13:18;95971.22;;;-1.97
42119;BMP280;27783;42.782;23.274;2023-12-20T00:15:44;95976.84;;;-2.17
42119;BMP280;27783;42.782;23.274;2023-12-20T00:18:12;95970.47;;;-2.19
42119;BMP280;27783;42.782;23.274;2023-12-20T00:20:38;95974.47;;;-1.92
42119;BMP280;27783;42.782;23.274;2023-12-20T00:23:03;95962.91;;;-2.16
42119;BMP280;27783;42.782;23.274;2023-12-20T00:25:31;95955.59;;;-2.14
42119;BMP280;27783;42.782;23.274;2023-12-20T00:27:56;95940.91;;;-1.92
42119;BMP280;27783;42.782;23.274;2023-12-20T00:30:21;95946.53;;;-1.90
42119;BMP280;27783;42.782;23.274;2023-12-20T00:32:48;95942.94;;;-1.81
42119;BMP280;27783;42.782;23.274;2023-12-20T00:35:16;95941.88;;;-1.80
42119;BMP280;27783;42.782;23.274;2023-12-20T00:37:43;95944.09;;;-1.65
42119;BMP280;27783;42.782;23.274;2023-12-20T00:40:29;95942.91;;;-1.59
42119;BMP280;27783;42.782;23.274;2023-12-20T00:42:55;95938.69;;;-1.55
42119;BMP280;27783;42.782;23.274;2023-12-20T00:45:20;95943.25;;;-1.52
42119;BMP280;27783;42.782;23.274;2023-12-20T00:47:45;95943.72;;;-1.50
42119;BMP280;27783;42.782;23.274;2023-12-20T00:50:12;95937.78;;;-1.51
42119;BMP280;27783;42.782;23.274;2023-12-20T00:52:38;95935.19;;;-1.51
42119;BMP280;27783;42.782;23.274;2023-12-20T00:55:05;95924.69;;;-1.54
42119;BMP280;27783;42.782;23.274;2023-12-20T00:57:35;95926.56;;;-1.47
42119;BMP280;27783;42.782;23.274;2023-12-20T01:00:01;95927.31;;;-1.46
42119;BMP280;27783;42.782;23.274;2023-12-20T01:02:27;95922.94;;;-1.37
42119;BMP280;27783;42.782;23.274;2023-12-20T01:04:57;95922.50;;;-1.39
42119;BMP280;27783;42.782;23.274;2023-12-20T01:07:29;95923.25;;;-1.39
42119;BMP280;27783;42.782;23.274;2023-12-20T01:09:55;95911.72;;;-1.33
42119;BMP280;27783;42.782;23.274;2023-12-20T01:12:20;95905.34;;;-1.35
42119;BMP280;27783;42.782;23.274;2023-12-20T01:14:47;95902.47;;;-1.26
42119;BMP280;27783;42.782;23.274;2023-12-20T01:17:13;95905.34;;;-1.35
42119;BMP280;27783;42.782;23.274;2023-12-20T01:19:42;95896.66;;;-1.39
42119;BMP280;27783;42.782;23.274;2023-12-20T01:22:07;95895.00;;;-1.35
42119;BMP280;27783;42.782;23.274;2023-12-20T01:24:34;95888.41;;;-1.41
42119;BMP280;27783;42.782;23.274;2023-12-20T01:27:01;95889.94;;;-1.40
42119;BMP280;27783;42.782;23.274;2023-12-20T01:29:28;95879.59;;;-1.40
42119;BMP280;27783;42.782;23.274;2023-12-20T01:31:53;95883.41;;;-1.46
42119;BMP280;27783;42.782;23.274;2023-12-20T01:34:20;95874.28;;;-1.44
42119;BMP280;27783;42.782;23.274;2023-12-20T01:36:46;95883.50;;;-1.51
42119;BMP280;27783;42.782;23.274;2023-12-20T01:39:12;95867.56;;;-1.45
42119;BMP280;27783;42.782;23.274;2023-12-20T01:41:42;95875.69;;;-1.30
42119;BMP280;27783;42.782;23.274;2023-12-20T01:44:07;95870.69;;;-1.26
42119;BMP280;27783;42.782;23.274;2023-12-20T01:46:34;95864.75;;;-1.27
42119;BMP280;27783;42.782;23.274;2023-12-20T01:49:00;95861.88;;;-1.25
42119;BMP280;27783;42.782;23.274;2023-12-20T01:51:34;95860.69;;;-1.19
42119;BMP280;27783;42.782;23.274;2023-12-20T01:54:00;95854.75;;;-1.20
42119;BMP280;27783;42.782;23.274;2023-12-20T01:56:26;95850.94;;;-1.22
42119;BMP280;27783;42.782;23.274;2023-12-20T01:58:53;95854.56;;;-1.23
42119;BMP280;27783;42.782;23.274;2023-12-20T02:01:21;95846.53;;;-1.14
42119;BMP280;27783;42.782;23.274;2023-12-20T02:03:47;95848.50;;;-1.11
42119;BMP280;27783;42.782;23.274;2023-12-20T02:06:13;95845.03;;;-0.98
42119;BMP280;27783;42.782;23.274;2023-12-20T02:08:45;95841.06;;;-1.04
42119;BMP280;27783;42.782;23.274;2023-12-20T02:11:11;95843.53;;;-0.99
42119;BMP280;27783;42.782;23.274;2023-12-20T02:13:37;95830.44;;;-1.02
42119;BMP280;27783;42.782;23.274;2023-12-20T02:16:04;95829.69;;;-1.03
42119;BMP280;27783;42.782;23.274;2023-12-20T02:18:30;95822.38;;;-1.01
42119;BMP280;27783;42.782;23.274;2023-12-20T02:20:57;95823.28;;;-1.14
42119;BMP280;27783;42.782;23.274;2023-12-20T02:23:23;95820.84;;;-1.02
42119;BMP280;27783;42.782;23.274;2023-12-20T02:25:48;95823.41;;;-1.18
42119;BMP280;27783;42.782;23.274;2023-12-20T02:28:15;95822.50;;;-1.22
42119;BMP280;27783;42.782;23.274;2023-12-20T02:30:42;95816.59;;;-1.06
42119;BMP280;27783;42.782;23.274;2023-12-20T02:33:14;95813.25;;;-1.07
42119;BMP280;27783;42.782;23.274;2023-12-20T02:35:41;95817.97;;;-1.09
42119;BMP280;27783;42.782;23.274;2023-12-20T02:38:08;95807.19;;;-1.02
42119;BMP280;27783;42.782;23.274;2023-12-20T02:40:35;95803.63;;;-1.15
42119;BMP280;27783;42.782;23.274;2023-12-20T02:43:01;95809.75;;;-1.02
42119;BMP280;27783;42.782;23.274;2023-12-20T02:45:29;95808.06;;;-1.07
42119;BMP280;27783;42.782;23.274;2023-12-20T02:47:55;95812.16;;;-1.14
42119;BMP280;27783;42.782;23.274;2023-12-20T02:50:20;95796.50;;;-1.26
42119;BMP280;27783;42.782;23.274;2023-12-20T02:52:46;95800.00;;;-1.14
42119;BMP280;27783;42.782;23.274;2023-12-20T02:55:17;95796.66;;;-1.06
42119;BMP280;27783;42.782;23.274;2023-12-20T02:57:44;95802.00;;;-1.02
42119;BMP280;27783;42.782;23.274;2023-12-20T03:00:11;95799.88;;;-0.92
42119;BMP280;27783;42.782;23.274;2023-12-20T03:02:37;95801.22;;;-0.95
42119;BMP280;27783;42.782;23.274;2023-12-20T03:05:04;95802.28;;;-1.04
42119;BMP280;27783;42.782;23.274;2023-12-20T03:07:31;95802.44;;;-1.00
42119;BMP280;27783;42.782;23.274;2023-12-20T03:09:58;95800.00;;;-0.97
42119;BMP280;27783;42.782;23.274;2023-12-20T03:12:24;95796.97;;;-0.99
42119;BMP280;27783;42.782;23.274;2023-12-20T03:14:53;95801.06;;;-0.98
42119;BMP280;27783;42.782;23.274;2023-12-20T03:17:18;95790.13;;;-0.87
42119;BMP280;27783;42.782;23.274;2023-12-20T03:19:44;95788.31;;;-1.03
42119;BMP280;27783;42.782;23.274;2023-12-20T03:22:11;95786.03;;;-0.96
42119;BMP280;27783;42.782;23.274;2023-12-20T03:24:36;95780.69;;;-0.91
42119;BMP280;27783;42.782;23.274;2023-12-20T03:27:03;95777.78;;;-0.98
42119;BMP280;27783;42.782;23.274;2023-12-20T03:29:30;95782.50;;;-1.17
42119;BMP280;27783;42.782;23.274;2023-12-20T03:31:56;95779.19;;;-0.92
42119;BMP280;27783;42.782;23.274;2023-12-20T03:34:23;95781.91;;;-0.81
42119;BMP280;27783;42.782;23.274;2023-12-20T03:36:50;95775.38;;;-0.86
42119;BMP280;27783;42.782;23.274;2023-12-20T03:39:17;95784.94;;;-1.03
42119;BMP280;27783;42.782;23.274;2023-12-20T03:41:43;95776.88;;;-1.10
42119;BMP280;27783;42.782;23.274;2023-12-20T03:44:09;95768.38;;;-1.19
42119;BMP280;27783;42.782;23.274;2023-12-20T03:46:35;95778.41;;;-1.26
42119;BMP280;27783;42.782;23.274;2023-12-20T03:49:04;95767.25;;;-1.43
42119;BMP280;27783;42.782;23.274;2023-12-20T03:51:30;95765.75;;;-1.27
42119;BMP280;27783;42.782;23.274;2023-12-20T03:53:58;95769.53;;;-1.41
42119;BMP280;27783;42.782;23.274;2023-12-20T03:56:25;95764.97;;;-1.44
42119;BMP280;27783;42.782;23.274;2023-12-20T03:58:53;95759.03;;;-1.45
42119;BMP280;27783;42.782;23.274;2023-12-20T04:01:20;95761.94;;;-1.38
42119;BMP280;27783;42.782;23.274;2023-12-20T04:03:48;95765.72;;;-1.44
42119;BMP280;27783;42.782;23.274;2023-12-20T04:06:16;95759.47;;;-1.51
42119;BMP280;27783;42.782;23.274;2023-12-20T04:08:44;95757.56;;;-1.29
42119;BMP280;27783;42.782;23.274;2023-12-20T04:11:11;95758.00;;;-1.11
42119;BMP280;27783;42.782;23.274;2023-12-20T04:13:37;95752.09;;;-1.19
42119;BMP280;27783;42.782;23.274;2023-12-20T04:16:04;95748.41;;;-1.35
42119;BMP280;27783;42.782;23.274;2023-12-20T04:18:30;95748.72;;;-1.36
42119;BMP280;27783;42.782;23.274;2023-12-20T04:20:57;95739.59;;;-1.17
42119;BMP280;27783;42.782;23.274;2023-12-20T04:23:23;95745.84;;;-1.18
42119;BMP280;27783;42.782;23.274;2023-12-20T04:25:49;95737.50;;;-1.32
42119;BMP280;27783;42.782;23.274;2023-12-20T04:28:16;95739.13;;;-1.44
42119;BMP280;27783;42.782;23.274;2023-12-20T04:30:42;95748.38;;;-1.60
42119;BMP280;27783;42.782;23.274;2023-12-20T04:33:10;95743.22;;;-1.68
42119;BMP280;27783;42.782;23.274;2023-12-20T04:35:35;95738.19;;;-1.48
42119;BMP280;27783;42.782;23.274;2023-12-20T04:38:01;95735.16;;;-1.50
42119;BMP280;27783;42.782;23.274;2023-12-20T04:40:29;95741.75;;;-1.36
42119;BMP280;27783;42.782;23.274;2023-12-20T04:42:55;95739.47;;;-1.21
42119;BMP280;27783;42.782;23.274;2023-12-20T04:45:22;95742.03;;;-1.29
42119;BMP280;27783;42.782;23.274;2023-12-20T04:47:51;95736.53;;;-1.44
42119;BMP280;27783;42.782;23.274;2023-12-20T04:50:19;95738.53;;;-1.50
42119;BMP280;27783;42.782;23.274;2023-12-20T04:52:47;95736.72;;;-1.24
42119;BMP280;27783;42.782;23.274;2023-12-20T04:55:15;95733.16;;;-1.61
42119;BMP280;27783;42.782;23.274;2023-12-20T04:57:40;95728.00;;;-1.69
42119;BMP280;27783;42.782;23.274;2023-12-20T05:00:06;95722.97;;;-1.74
42119;BMP280;27783;42.782;23.274;2023-12-20T05:02:35;95729.25;;;-1.50
42119;BMP280;27783;42.782;23.274;2023-12-20T05:05:09;95730.31;;;-1.43
42119;BMP280;27783;42.782;23.274;2023-12-20T05:07:38;95730.28;;;-1.68
42119;BMP280;27783;42.782;23.274;2023-12-20T05:10:06;95719.97;;;-1.60
42119;BMP280;27783;42.782;23.274;2023-12-20T05:12:33;95718.00;;;-1.38
42119;BMP280;27783;42.782;23.274;2023-12-20T05:15:03;95719.50;;;-1.53
42119;BMP280;27783;42.782;23.274;2023-12-20T05:17:29;95711.63;;;-1.49
42119;BMP280;27783;42.782;23.274;2023-12-20T05:19:56;95711.31;;;-1.55
42119;BMP280;27783;42.782;23.274;2023-12-20T05:22:22;95707.16;;;-1.65
42119;BMP280;27783;42.782;23.274;2023-12-20T05:24:56;95714.66;;;-1.47
42119;BMP280;27783;42.782;23.274;2023-12-20T05:27:21;95722.13;;;-1.37
42119;BMP280;27783;42.782;23.274;2023-12-20T05:29:47;95709.34;;;-1.58
42119;BMP280;27783;42.782;23.274;2023-12-20T05:32:12;95705.22;;;-1.59
42119;BMP280;27783;42.782;23.274;2023-12-20T05:34:38;95709.09;;;-1.86
42119;BMP280;27783;42.782;23.274;2023-12-20T05:37:03;95699.25;;;-1.76
42119;BMP280;27783;42.782;23.274;2023-12-20T05:39:28;95692.03;;;-2.04
42119;BMP280;27783;42.782;23.274;2023-12-20T05:41:56;95696.31;;;-2.00
42119;BMP280;27783;42.782;23.274;2023-12-20T05:44:21;95701.53;;;-1.91
42119;BMP280;27783;42.782;23.274;2023-12-20T05:46:47;95686.00;;;-2.00
42119;BMP280;27783;42.782;23.274;2023-12-20T05:49:12;95691.75;;;-2.02
42119;BMP280;27783;42.782;23.274;2023-12-20T05:51:38;95695.16;;;-1.77
42119;BMP280;27783;42.782;23.274;2023-12-20T05:54:04;95689.66;;;-1.92
42119;BMP280;27783;42.782;23.274;2023-12-20T05:56:29;95686.53;;;-1.56
42119;BMP280;27783;42.782;23.274;2023-12-20T05:58:54;95688.38;;;-1.49
42119;BMP280;27783;42.782;23.274;2023-12-20T06:01:20;95688.81;;;-1.55
42119;BMP280;27783;42.782;23.274;2023-12-20T06:03:45;95684.53;;;-1.76
42119;BMP280;27783;42.782;23.274;2023-12-20T06:06:11;95691.09;;;-1.53
42119;BMP280;27783;42.782;23.274;2023-12-20T06:08:38;95677.56;;;-1.50
42119;BMP280;27783;42.782;23.274;2023-12-20T06:11:03;95687.28;;;-1.48
42119;BMP280;27783;42.782;23.274;2023-12-20T06:13:28;95685.16;;;-1.62
42119;BMP280;27783;42.782;23.274;2023-12-20T06:15:54;95683.94;;;-1.56
42119;BMP280;27783;42.782;23.274;2023-12-20T06:18:19;95681.06;;;-1.47
42119;BMP280;27783;42.782;23.274;2023-12-20T06:20:45;95677.88;;;-1.44
42119;BMP280;27783;42.782;23.274;2023-12-20T06:23:10;95677.72;;;-1.39
42119;BMP280;27783;42.782;23.274;2023-12-20T06:25:36;95671.66;;;-1.43
42119;BMP280;27783;42.782;23.274;2023-12-20T06:28:01;95672.41;;;-1.42
42119;BMP280;27783;42.782;23.274;2023-12-20T06:30:26;95676.34;;;-1.36
42119;BMP280;27783;42.782;23.274;2023-12-20T06:32:53;95679.41;;;-1.26
42119;BMP280;27783;42.782;23.274;2023-12-20T06:35:18;95682.75;;;-1.42
42119;BMP280;27783;42.782;23.274;2023-12-20T06:37:44;95682.00;;;-1.26
42119;BMP280;27783;42.782;23.274;2023-12-20T06:40:11;95679.41;;;-1.43
42119;BMP280;27783;42.782;23.274;2023-12-20T06:42:36;95679.06;;;-1.58
42119;BMP280;27783;42.782;23.274;2023-12-20T06:45:02;95673.31;;;-1.47
42119;BMP280;27783;42.782;23.274;2023-12-20T06:47:28;95677.56;;;-1.34
42119;BMP280;27783;42.782;23.274;2023-12-20T06:49:53;95678.50;;;-1.38
42119;BMP280;27783;42.782;23.274;2023-12-20T06:52:19;95675.59;;;-1.45
42119;BMP280;27783;42.782;23.274;2023-12-20T06:54:44;95674.97;;;-1.59
42119;BMP280;27783;42.782;23.274;2023-12-20T06:57:09;95661.28;;;-1.51
42119;BMP280;27783;42.782;23.274;2023-12-20T06:59:41;95669.50;;;-1.49
42119;BMP280;27783;42.782;23.274;2023-12-20T07:02:06;95664.03;;;-1.48
42119;BMP280;27783;42.782;23.274;2023-12-20T07:04:32;95661.13;;;-1.54
42119;BMP280;27783;42.782;23.274;2023-12-20T07:06:57;95658.72;;;-1.59
42119;BMP280;27783;42.782;23.274;2023-12-20T07:09:25;95660.97;;;-1.58
42119;BMP280;27783;42.782;23.274;2023-12-20T07:11:51;95655.84;;;-1.33
42119;BMP280;27783;42.782;23.274;2023-12-20T07:14:16;95651.13;;;-1.39
42119;BMP280;27783;42.782;23.274;2023-12-20T07:16:42;95654.47;;;-1.39
42119;BMP280;27783;42.782;23.274;2023-12-20T07:19:07;95656.28;;;-1.23
42119;BMP280;27783;42.782;23.274;2023-12-20T07:21:32;95649.88;;;-1.17
42119;BMP280;27783;42.782;23.274;2023-12-20T07:23:58;95646.06;;;-1.03
42119;BMP280;27783;42.782;23.274;2023-12-20T07:26:23;95635.56;;;-0.90
42119;BMP280;27783;42.782;23.274;2023-12-20T07:28:49;95641.53;;;-1.14
42119;BMP280;27783;42.782;23.274;2023-12-20T07:31:17;95642.72;;;-1.03
42119;BMP280;27783;42.782;23.274;2023-12-20T07:33:43;95643.50;;;-1.03
42119;BMP280;27783;42.782;23.274;2023-12-20T07:36:08;95633.50;;;-1.62
42119;BMP280;27783;42.782;23.274;2023-12-20T07:38:34;95640.94;;;-1.61
42119;BMP280;27783;42.782;23.274;2023-12-20T07:40:59;95642.31;;;-1.30
42119;BMP280;27783;42.782;23.274;2023-12-20T07:43:25;95635.44;;;-1.51
42119;BMP280;27783;42.782;23.274;2023-12-20T07:45:50;95639.84;;;-1.18
42119;BMP280;27783;42.782;23.274;2023-12-20T07:48:16;95629.63;;;-0.99
42119;BMP280;27783;42.782;23.274;2023-12-20T07:50:41;95634.09;;;-1.24
42119;BMP280;27783;42.782;23.274;2023-12-20T07:53:07;95622.22;;;-1.41
42119;BMP280;27783;42.782;23.274;2023-12-20T07:55:33;95630.13;;;-1.21
42119;BMP280;27783;42.782;23.274;2023-12-20T07:57:59;95642.44;;;-1.18
42119;BMP280;27783;42.782;23.274;2023-12-20T08:00:25;95641.22;;;-1.21
42119;BMP280;27783;42.782;23.274;2023-12-20T08:02:51;95625.78;;;-0.84
42119;BMP280;27783;42.782;23.274;2023-12-20T08:05:17;95627.59;;;-0.77
42119;BMP280;27783;42.782;23.274;2023-12-20T08:07:42;95626.09;;;-0.78
42119;BMP280;27783;42.782;23.274;2023-12-20T08:10:08;95641.44;;;-0.73
42119;BMP280;27783;42.782;23.274;2023-12-20T08:12:33;95622.38;;;-0.60
42119;BMP280;27783;42.782;23.274;2023-12-20T08:14:59;95614.63;;;-0.68
42119;BMP280;27783;42.782;23.274;2023-12-20T08:17:24;95611.47;;;-0.74
42119;BMP280;27783;42.782;23.274;2023-12-20T08:19:51;95616.38;;;-0.89
42119;BMP280;27783;42.782;23.274;2023-12-20T08:22:16;95613.41;;;-0.63
42119;BMP280;27783;42.782;23.274;2023-12-20T08:24:41;95611.91;;;-0.72
42119;BMP280;27783;42.782;23.274;2023-12-20T08:27:07;95609.84;;;-0.50
42119;BMP280;27783;42.782;23.274;2023-12-20T08:29:32;95602.25;;;-0.55
42119;BMP280;27783;42.782;23.274;2023-12-20T08:31:59;95605.38;;;-0.69
42119;BMP280;27783;42.782;23.274;2023-12-20T08:34:25;95605.38;;;-0.78
42119;BMP280;27783;42.782;23.274;2023-12-20T08:36:50;95592.72;;;-0.63
42119;BMP280;27783;42.782;23.274;2023-12-20T08:39:16;95589.25;;;-0.38
42119;BMP280;27783;42.782;23.274;2023-12-20T08:41:42;95589.00;;;-0.53
42119;BMP280;27783;42.782;23.274;2023-12-20T08:44:08;95593.88;;;-0.52
42119;BMP280;27783;42.782;23.274;2023-12-20T08:46:34;95584.41;;;-0.48
42119;BMP280;27783;42.782;23.274;2023-12-20T08:48:59;95585.69;;;-0.62
42119;BMP280;27783;42.782;23.274;2023-12-20T08:51:25;95572.38;;;-0.44
42119;BMP280;27783;42.782;23.274;2023-12-20T08:53:51;95567.88;;;-0.27
42119;BMP280;27783;42.782;23.274;2023-12-20T08:56:16;95570.13;;;-0.26
42119;BMP280;27783;42.782;23.274;2023-12-20T08:58:43;95559.44;;;-0.44
42119;BMP280;27783;42.782;23.274;2023-12-20T09:01:08;95549.03;;;-0.36
42119;BMP280;27783;42.782;23.274;2023-12-20T09:03:34;95548.09;;;-0.32
42119;BMP280;27783;42.782;23.274;2023-12-20T09:05:59;95547.16;;;-0.27
42119;BMP280;27783;42.782;23.274;2023-12-20T09:08:26;95531.88;;;-0.49
42119;BMP280;27783;42.782;23.274;2023-12-20T09:10:52;95532.94;;;-0.21
42119;BMP280;27783;42.782;23.274;2023-12-20T09:13:17;95520.81;;;-0.09
42119;BMP280;27783;42.782;23.274;2023-12-20T09:15:42;95517.59;;;-0.26
42119;BMP280;27783;42.782;23.274;2023-12-20T09:18:08;95520.91;;;-0.46
42119;BMP280;27783;42.782;23.274;2023-12-20T09:20:34;95508.91;;;-0.02
42119;BMP280;27783;42.782;23.274;2023-12-20T09:23:00;95514.69;;;-0.25
42119;BMP280;27783;42.782;23.274;2023-12-20T09:25:26;95497.47;;;-0.49
42119;BMP280;27783;42.782;23.274;2023-12-20T09:27:52;95492.97;;;-0.32
42119;BMP280;27783;42.782;23.274;2023-12-20T09:30:18;95484.81;;;-0.22
42119;BMP280;27783;42.782;23.274;2023-12-20T09:32:44;95470.09;;;0.10
42119;BMP280;27783;42.782;23.274;2023-12-20T09:35:10;95467.03;;;0.28
42119;BMP280;27783;42.782;23.274;2023-12-20T09:37:36;95465.22;;;0.08
42119;BMP280;27783;42.782;23.274;2023-12-20T09:40:03;95460.19;;;-0.08
42119;BMP280;27783;42.782;23.274;2023-12-20T09:45:08;95464.22;;;-0.39
42119;BMP280;27783;42.782;23.274;2023-12-20T09:47:35;95447.78;;;0.17
42119;BMP280;27783;42.782;23.274;2023-12-20T09:50:02;95449.00;;;0.31
42119;BMP280;27783;42.782;23.274;2023-12-20T09:52:29;95434.94;;;0.52
42119;BMP280;27783;42.782;23.274;2023-12-20T09:54:56;95437.88;;;0.19
42119;BMP280;27783;42.782;23.274;2023-12-20T09:57:25;95429.81;;;0.44
42119;BMP280;27783;42.782;23.274;2023-12-20T09:59:50;95424.88;;;0.50
42119;BMP280;27783;42.782;23.274;2023-12-20T10:02:18;95423.81;;;0.63
42119;BMP280;27783;42.782;23.274;2023-12-20T10:04:47;95419.94;;;0.81
42119;BMP280;27783;42.782;23.274;2023-12-20T10:07:32;95413.91;;;0.88
42119;BMP280;27783;42.782;23.274;2023-12-20T10:09:58;95405.25;;;0.84
42119;BMP280;27783;42.782;23.274;2023-12-20T10:12:24;95402.56;;;0.81
42119;BMP280;27783;42.782;23.274;2023-12-20T10:14:50;95399.84;;;0.89
42119;BMP280;27783;42.782;23.274;2023-12-20T10:17:16;95398.13;;;0.82
42119;BMP280;27783;42.782;23.274;2023-12-20T10:19:42;95398.94;;;1.32
42119;BMP280;27783;42.782;23.274;2023-12-20T10:22:08;95396.06;;;0.64
42119;BMP280;27783;42.782;23.274;2023-12-20T10:24:33;95389.25;;;1.06
42119;BMP280;27783;42.782;23.274;2023-12-20T10:27:06;95388.59;;;1.20
42119;BMP280;27783;42.782;23.274;2023-12-20T10:29:34;95385.16;;;1.05
42119;BMP280;27783;42.782;23.274;2023-12-20T10:31:59;95377.09;;;1.33
42119;BMP280;27783;42.782;23.274;2023-12-20T10:34:24;95370.41;;;1.32
42119;BMP280;27783;42.782;23.274;2023-12-20T10:36:51;95374.50;;;1.45
42119;BMP280;27783;42.782;23.274;2023-12-20T10:39:17;95356.50;;;1.51
42119;BMP280;27783;42.782;23.274;2023-12-20T10:41:45;95345.56;;;1.84
42119;BMP280;27783;42.782;23.274;2023-12-20T10:44:12;95351.22;;;1.75
42119;BMP280;27783;42.782;23.274;2023-12-20T10:46:39;95332.75;;;1.38
42119;BMP280;27783;42.782;23.274;2023-12-20T10:49:06;95341.31;;;1.65
42119;BMP280;27783;42.782;23.274;2023-12-20T10:51:34;95330.00;;;1.58
42119;BMP280;27783;42.782;23.274;2023-12-20T10:54:00;95328.28;;;1.77
42119;BMP280;27783;42.782;23.274;2023-12-20T10:56:29;95311.25;;;1.91
42119;BMP280;27783;42.782;23.274;2023-12-20T10:58:59;95313.94;;;1.94
42119;BMP280;27783;42.782;23.274;2023-12-20T11:01:28;95319.81;;;2.06
42119;BMP280;27783;42.782;23.274;2023-12-20T11:03:54;95307.44;;;2.30
42119;BMP280;27783;42.782;23.274;2023-12-20T11:06:25;95319.56;;;1.69
42119;BMP280;27783;42.782;23.274;2023-12-20T11:08:58;95293.81;;;1.65
42119;BMP280;27783;42.782;23.274;2023-12-20T11:11:56;95294.94;;;1.79
42119;BMP280;27783;42.782;23.274;2023-12-20T11:14:29;95293.19;;;1.98
42119;BMP280;27783;42.782;23.274;2023-12-20T11:17:09;95282.50;;;1.99
42119;BMP280;27783;42.782;23.274;2023-12-20T11:20:03;95279.66;;;2.19
42119;BMP280;27783;42.782;23.274;2023-12-20T11:22:33;95275.28;;;2.08
42119;BMP280;27783;42.782;23.274;2023-12-20T11:25:09;95267.78;;;1.76
42119;BMP280;27783;42.782;23.274;2023-12-20T11:27:36;95267.63;;;1.84
42119;BMP280;27783;42.782;23.274;2023-12-20T11:30:05;95261.13;;;1.90
42119;BMP280;27783;42.782;23.274;2023-12-20T11:32:33;95268.59;;;1.65
42119;BMP280;27783;42.782;23.274;2023-12-20T11:35:19;95239.25;;;2.06
42119;BMP280;27783;42.782;23.274;2023-12-20T11:37:45;95245.81;;;1.32
42119;BMP280;27783;42.782;23.274;2023-12-20T11:40:17;95235.34;;;1.70
42119;BMP280;27783;42.782;23.274;2023-12-20T11:42:45;95230.44;;;2.11
42119;BMP280;27783;42.782;23.274;2023-12-20T11:45:18;95224.31;;;2.18
42119;BMP280;27783;42.782;23.274;2023-12-20T11:47:49;95228.19;;;1.94
42119;BMP280;27783;42.782;23.274;2023-12-20T11:50:28;95234.03;;;1.76
42119;BMP280;27783;42.782;23.274;2023-12-20T11:53:14;95220.22;;;2.02
42119;BMP280;27783;42.782;23.274;2023-12-20T11:55:39;95209.13;;;2.35
42119;BMP280;27783;42.782;23.274;2023-12-20T11:58:06;95201.06;;;1.65
42119;BMP280;27783;42.782;23.274;2023-12-20T12:00:34;95193.63;;;2.09
42119;BMP280;27783;42.782;23.274;2023-12-20T12:03:03;95175.44;;;2.09
42119;BMP280;27783;42.782;23.274;2023-12-20T12:05:57;95179.97;;;2.27
42119;BMP280;27783;42.782;23.274;2023-12-20T12:08:23;95172.94;;;2.12
42119;BMP280;27783;42.782;23.274;2023-12-20T12:10:57;95163.06;;;1.57
42119;BMP280;27783;42.782;23.274;2023-12-20T12:13:26;95164.53;;;1.43
42119;BMP280;27783;42.782;23.274;2023-12-20T12:16:04;95165.31;;;1.17
42119;BMP280;27783;42.782;23.274;2023-12-20T12:18:34;95152.59;;;1.54
42119;BMP280;27783;42.782;23.274;2023-12-20T12:21:03;95151.81;;;1.68
42119;BMP280;27783;42.782;23.274;2023-12-20T12:23:28;95148.97;;;1.58
42119;BMP280;27783;42.782;23.274;2023-12-20T12:26:16;95156.97;;;1.23
42119;BMP280;27783;42.782;23.274;2023-12-20T12:28:49;95153.44;;;1.16
42119;BMP280;27783;42.782;23.274;2023-12-20T12:31:18;95156.75;;;1.28
42119;BMP280;27783;42.782;23.274;2023-12-20T12:33:45;95152.66;;;1.00
42119;BMP280;27783;42.782;23.274;2023-12-20T12:36:12;95155.94;;;1.13
42119;BMP280;27783;42.782;23.274;2023-12-20T12:38:41;95152.81;;;1.34
42119;BMP280;27783;42.782;23.274;2023-12-20T12:41:08;95151.47;;;1.40
42119;BMP280;27783;42.782;23.274;2023-12-20T12:44:01;95149.28;;;2.02
42119;BMP280;27783;42.782;23.274;2023-12-20T12:46:26;95134.72;;;1.52
42119;BMP280;27783;42.782;23.274;2023-12-20T12:48:52;95148.72;;;1.48
42119;BMP280;27783;42.782;23.274;2023-12-20T12:51:18;95141.66;;;1.33
42119;BMP280;27783;42.782;23.274;2023-12-20T12:53:44;95136.06;;;1.62
42119;BMP280;27783;42.782;23.274;2023-12-20T12:56:13;95131.72;;;1.50
42119;BMP280;27783;42.782;23.274;2023-12-20T12:58:40;95140.19;;;1.48
42119;BMP280;27783;42.782;23.274;2023-12-20T13:01:06;95135.22;;;1.43
42119;BMP280;27783;42.782;23.274;2023-12-20T13:03:33;95144.25;;;1.49
42119;BMP280;27783;42.782;23.274;2023-12-20T13:06:01;95130.53;;;1.33
42119;BMP280;27783;42.782;23.274;2023-12-20T13:08:28;95131.88;;;1.00
42119;BMP280;27783;42.782;23.274;2023-12-20T13:10:55;95126.97;;;1.11
42119;BMP280;27783;42.782;23.274;2023-12-20T13:13:26;95134.28;;;1.20
42119;BMP280;27783;42.782;23.274;2023-12-20T13:15:53;95126.81;;;1.19
42119;BMP280;27783;42.782;23.274;2023-12-20T13:18:23;95125.47;;;1.10
42119;BMP280;27783;42.782;23.274;2023-12-20T13:20:50;95120.19;;;1.06
42119;BMP280;27783;42.782;23.274;2023-12-20T13:23:17;95112.72;;;1.32
42119;BMP280;27783;42.782;23.274;2023-12-20T13:25:45;95122.81;;;1.21
42119;BMP280;27783;42.782;23.274;2023-12-20T13:28:32;95112.28;;;1.45
42119;BMP280;27783;42.782;23.274;2023-12-20T13:30:59;95109.50;;;1.83
42119;BMP280;27783;42.782;23.274;2023-12-20T13:33:26;95120.66;;;1.53
42119;BMP280;27783;42.782;23.274;2023-12-20T13:35:53;95112.94;;;1.72
42119;BMP280;27783;42.782;23.274;2023-12-20T13:38:20;95099.81;;;1.35
42119;BMP280;27783;42.782;23.274;2023-12-20T13:40:48;95100.66;;;1.54
42119;BMP280;27783;42.782;23.274;2023-12-20T13:43:14;95097.03;;;1.58
42119;BMP280;27783;42.782;23.274;2023-12-20T13:45:42;95093.44;;;1.63
42119;BMP280;27783;42.782;23.274;2023-12-20T13:48:09;95093.84;;;1.49
42119;BMP280;27783;42.782;23.274;2023-12-20T13:50:37;95102.16;;;1.25
42119;BMP280;27783;42.782;23.274;2023-12-20T13:53:03;95093.66;;;1.13
42119;BMP280;27783;42.782;23.274;2023-12-20T13:55:29;95091.53;;;0.88
42119;BMP280;27783;42.782;23.274;2023-12-20T13:57:56;95102.63;;;1.15
42119;BMP280;27783;42.782;23.274;2023-12-20T14:00:22;95113.13;;;1.18
42119;BMP280;27783;42.782;23.274;2023-12-20T14:02:48;95117.00;;;0.98
42119;BMP280;27783;42.782;23.274;2023-12-20T14:05:16;95105.91;;;1.42